createdAt,value
2024-04-13T00:02:14.162Z,98924.78
2024-04-13T00:07:16.180Z,98918.22
2024-04-13T00:12:18.226Z,98922.91
2024-04-13T00:17:20.296Z,98923.88
2024-04-13T00:22:22.642Z,98926.78
2024-04-13T00:27:24.820Z,98922.53
2024-04-13T00:32:27.352Z,98930.47
2024-04-13T00:37:32.928Z,98928.44
2024-04-13T00:42:36.265Z,98936.78
2024-04-13T00:47:39.008Z,98934.47
2024-04-13T00:52:43.423Z,98933.63
2024-04-13T00:57:45.487Z,98937.06
2024-04-13T01:02:48.208Z,98937.59
2024-04-13T01:07:51.000Z,98940.44
2024-04-13T01:12:53.881Z,98930.59
2024-04-13T01:17:55.996Z,98935.63
2024-04-13T01:23:00.993Z,98941.50
2024-04-13T01:28:03.004Z,98928.06
2024-04-13T01:33:05.648Z,98935.19
2024-04-13T01:38:07.911Z,98928.00
2024-04-13T01:43:09.938Z,98919.63
2024-04-13T01:48:12.239Z,98923.59
2024-04-13T01:53:14.758Z,98917.19
2024-04-13T01:58:16.807Z,98917.75
2024-04-13T02:03:18.913Z,98920.22
2024-04-13T02:08:20.965Z,98913.13
2024-04-13T02:13:23.101Z,98916.69
2024-04-13T02:18:25.261Z,98909.56
2024-04-13T02:23:27.575Z,98903.84
2024-04-13T02:28:29.926Z,98907.66
2024-04-13T02:33:33.607Z,98901.38
2024-04-13T02:38:35.713Z,98895.25
2024-04-13T02:43:37.699Z,98905.31
2024-04-13T02:48:41.189Z,98896.69
2024-04-13T02:53:43.466Z,98892.88
2024-04-13T02:58:48.054Z,98882.66
2024-04-13T03:03:50.310Z,98886.63
2024-04-13T03:08:52.323Z,98896.75
2024-04-13T03:13:54.329Z,98894.16
2024-04-13T03:18:56.499Z,98893.72
2024-04-13T03:23:58.545Z,98889.66
2024-04-13T03:29:00.542Z,98892.66
2024-04-13T03:34:04.484Z,98892.75
2024-04-13T03:39:06.611Z,98890.16
2024-04-13T03:44:09.264Z,98890.31
2024-04-13T03:49:11.331Z,98882.56
2024-04-13T03:54:13.463Z,98884.59
2024-04-13T03:59:15.548Z,98884.88
2024-04-13T04:04:17.657Z,98887.88
2024-04-13T04:09:19.684Z,98893.75
2024-04-13T04:14:22.563Z,98883.63
2024-04-13T04:19:24.688Z,98892.13
2024-04-13T04:24:26.734Z,98891.81
2024-04-13T04:29:28.812Z,98889.13
2024-04-13T04:34:31.562Z,98874.91
2024-04-13T04:39:33.557Z,98876.53
2024-04-13T04:44:35.768Z,98869.66
2024-04-13T04:49:37.813Z,98870.16
2024-04-13T04:54:39.897Z,98869.81
2024-04-13T04:59:42.994Z,98874.72
2024-04-13T05:04:44.967Z,98875.91
2024-04-13T05:09:46.963Z,98882.22
2024-04-13T05:14:48.915Z,98877.28
2024-04-13T05:19:50.875Z,98885.31
2024-04-13T05:24:52.890Z,98893.34
2024-04-13T05:29:55.564Z,98894.50
2024-04-13T05:34:57.982Z,98893.09
2024-04-13T05:39:59.932Z,98907.56
2024-04-13T05:45:02.689Z,98912.88
2024-04-13T05:50:04.899Z,98910.94
2024-04-13T05:55:08.412Z,98915.97
2024-04-13T06:00:11.066Z,98928.00
2024-04-13T06:05:13.059Z,98938.69
2024-04-13T06:10:15.085Z,98931.84
2024-04-13T06:15:17.156Z,98936.63
2024-04-13T06:20:19.155Z,98948.84
2024-04-13T06:25:22.689Z,98948.56
2024-04-13T06:30:25.609Z,98955.44
2024-04-13T06:35:27.574Z,98946.44
2024-04-13T06:40:29.535Z,98951.34
2024-04-13T06:45:31.661Z,98947.72
2024-04-13T06:50:33.682Z,98960.78
2024-04-13T06:55:35.725Z,98957.13
2024-04-13T07:00:37.878Z,98954.63
2024-04-13T07:05:39.968Z,98960.06
2024-04-13T07:10:41.954Z,98965.13
2024-04-13T07:15:44.104Z,98965.44
2024-04-13T07:20:46.813Z,98965.16
2024-04-13T07:25:58.033Z,98970.31
2024-04-13T07:31:00.927Z,98965.56
2024-04-13T07:36:02.956Z,98955.06
2024-04-13T07:41:05.025Z,98953.38
2024-04-13T07:46:06.968Z,98949.66
2024-04-13T07:51:08.993Z,98940.94
2024-04-13T07:56:12.663Z,98937.47
2024-04-13T08:01:17.113Z,98926.34
2024-04-13T08:06:19.603Z,98914.66
2024-04-13T08:11:21.607Z,98925.56
2024-04-13T08:16:23.673Z,98917.31
2024-04-13T08:21:25.724Z,98908.91
2024-04-13T08:26:27.706Z,98905.03
2024-04-13T08:31:29.678Z,98903.00
2024-04-13T08:36:33.055Z,98898.19
2024-04-13T08:41:57.884Z,98886.66
2024-04-13T08:47:03.584Z,98874.22
2024-04-13T08:52:08.068Z,98885.22
2024-04-13T08:57:14.246Z,98881.63
2024-04-13T09:02:17.647Z,98891.28
2024-04-13T09:07:26.146Z,98894.72
2024-04-13T09:12:29.383Z,98897.22
2024-04-13T09:17:33.133Z,98891.09
2024-04-13T09:22:40.408Z,98896.84
2024-04-13T09:27:42.422Z,98900.09
2024-04-13T09:32:45.530Z,98888.63
2024-04-13T09:37:47.890Z,98891.25
2024-04-13T09:42:49.956Z,98878.75
2024-04-13T09:47:54.162Z,98871.78
2024-04-13T09:52:58.877Z,98862.88
2024-04-13T09:58:00.860Z,98862.78
2024-04-13T10:03:02.999Z,98862.06
2024-04-13T10:08:08.929Z,98861.56
2024-04-13T10:13:16.536Z,98857.31
2024-04-13T10:18:19.787Z,98850.22
2024-04-13T10:23:21.804Z,98850.59
2024-04-13T10:28:24.982Z,98833.97
2024-04-13T10:33:31.930Z,98844.66
2024-04-13T10:38:35.914Z,98828.44
2024-04-13T10:43:38.070Z,98828.78
2024-04-13T10:48:43.790Z,98823.19
2024-04-13T10:53:46.551Z,98816.19
2024-04-13T10:58:51.149Z,98804.41
2024-04-13T11:04:03.640Z,98812.78
2024-04-13T11:09:06.007Z,98808.47
2024-04-13T11:14:08.314Z,98808.63
2024-04-13T11:19:10.550Z,98806.00
2024-04-13T11:24:12.885Z,98787.66
2024-04-13T11:29:14.967Z,98780.94
2024-04-13T11:34:16.940Z,98781.94
2024-04-13T11:39:21.167Z,98772.13
2024-04-13T11:44:23.161Z,98760.84
2024-04-13T11:49:25.274Z,98758.50
2024-04-13T11:54:29.083Z,98738.00
2024-04-13T11:59:31.049Z,98744.72
2024-04-13T12:04:33.066Z,98739.38
2024-04-13T12:09:35.405Z,98740.03
2024-04-13T12:14:46.753Z,98727.25
2024-04-13T12:19:52.147Z,98728.13
2024-04-13T12:24:54.218Z,98708.34
2024-04-13T12:29:58.831Z,98705.00
2024-04-13T12:35:08.890Z,98692.78
2024-04-13T12:40:11.097Z,98690.91
2024-04-13T12:45:13.037Z,98676.59
2024-04-13T12:50:15.008Z,98662.38
2024-04-13T12:55:17.569Z,98645.47
2024-04-13T13:00:19.696Z,98635.84
2024-04-13T13:05:21.741Z,98645.22
2024-04-13T13:10:23.861Z,98637.13
2024-04-13T13:15:25.868Z,98624.34
2024-04-13T13:20:27.819Z,98617.66
2024-04-13T13:25:29.786Z,98606.03
2024-04-13T13:30:39.173Z,98601.81
2024-04-13T13:35:42.437Z,98593.97
2024-04-13T13:40:44.544Z,98587.59
2024-04-13T13:45:46.631Z,98577.56
2024-04-13T13:50:48.667Z,98576.47
2024-04-13T13:55:50.966Z,98562.50
2024-04-13T14:00:53.003Z,98563.75
2024-04-13T14:06:00.501Z,98558.56
2024-04-13T14:11:02.884Z,98547.59
2024-04-13T14:16:05.306Z,98547.06
2024-04-13T14:21:07.350Z,98531.19
2024-04-13T14:26:09.582Z,98512.69
2024-04-13T14:31:11.539Z,98527.78
2024-04-13T14:36:13.740Z,98516.31
2024-04-13T14:41:15.735Z,98507.22
2024-04-13T14:46:17.886Z,98495.09
2024-04-13T14:51:20.037Z,98507.03
2024-04-13T14:56:22.283Z,98497.84
2024-04-13T15:01:24.339Z,98493.19
2024-04-13T15:06:26.548Z,98481.44
2024-04-13T15:11:28.865Z,98477.44
2024-04-13T15:16:30.869Z,98468.44
2024-04-13T15:21:32.902Z,98476.59
2024-04-13T15:26:34.932Z,98468.97
2024-04-13T15:31:36.930Z,98460.47
2024-04-13T15:36:38.986Z,98461.94
2024-04-13T15:41:41.873Z,98454.25
2024-04-13T15:46:43.939Z,98444.03
2024-04-13T15:51:46.007Z,98443.25
2024-04-13T15:56:48.016Z,98439.31
2024-04-13T16:01:50.096Z,98438.94
2024-04-13T16:06:55.370Z,98425.94
2024-04-13T16:11:57.444Z,98420.75
2024-04-13T16:16:59.448Z,98405.56
2024-04-13T16:22:06.174Z,98403.06
2024-04-13T16:27:08.233Z,98404.19
2024-04-13T16:32:10.955Z,98398.16
2024-04-13T16:37:12.930Z,98398.41
2024-04-13T16:42:14.898Z,98394.06
2024-04-13T16:47:17.806Z,98379.22
2024-04-13T16:52:19.820Z,98371.88
2024-04-13T16:57:21.830Z,98370.06
2024-04-13T17:02:23.876Z,98358.91
2024-04-13T17:07:26.367Z,98357.50
2024-04-13T17:12:28.416Z,98355.75
2024-04-13T17:17:30.888Z,98345.75
2024-04-13T17:22:32.968Z,98340.19
2024-04-13T17:27:35.416Z,98331.91
2024-04-13T17:32:37.529Z,98322.19
2024-04-13T17:37:39.516Z,98321.19
2024-04-13T17:42:41.532Z,98324.38
2024-04-13T17:47:43.576Z,98315.94
2024-04-13T17:52:45.813Z,98313.75
2024-04-13T17:57:47.858Z,98304.44
2024-04-13T18:02:50.058Z,98309.59
2024-04-13T18:07:52.640Z,98310.94
2024-04-13T18:12:54.719Z,98317.06
2024-04-13T18:17:56.882Z,98316.75
2024-04-13T18:22:58.877Z,98319.63
2024-04-13T18:28:00.953Z,98316.44
2024-04-13T18:33:03.048Z,98306.72
2024-04-13T18:38:05.292Z,98308.31
2024-04-13T18:43:07.454Z,98303.00
2024-04-13T18:48:09.856Z,98301.69
2024-04-13T18:53:11.945Z,98292.31
2024-04-13T18:58:13.947Z,98294.59
2024-04-13T19:03:16.093Z,98283.44
2024-04-13T19:08:18.940Z,98281.41
2024-04-13T19:13:21.129Z,98280.41
2024-04-13T19:18:23.229Z,98282.22
2024-04-13T19:23:25.683Z,98265.09
2024-04-13T19:28:28.499Z,98260.22
2024-04-13T19:33:30.699Z,98258.03
2024-04-13T19:38:32.689Z,98256.41
2024-04-13T19:43:35.084Z,98261.44
2024-04-13T19:48:37.324Z,98265.72
2024-04-13T19:53:39.503Z,98255.91
2024-04-13T19:58:41.573Z,98251.41
2024-04-13T20:03:43.690Z,98246.06
2024-04-13T20:08:45.930Z,98241.00
2024-04-13T20:13:47.987Z,98221.91
2024-04-13T20:18:50.505Z,98227.72
2024-04-13T20:23:52.638Z,98207.38
2024-04-13T20:28:54.802Z,98213.84
2024-04-13T20:33:56.968Z,98214.66
2024-04-13T20:38:59.082Z,98202.03
2024-04-13T20:44:01.080Z,98200.78
2024-04-13T20:49:03.126Z,98191.06
2024-04-13T20:54:05.249Z,98187.41
2024-04-13T20:59:07.212Z,98183.31
2024-04-13T21:04:09.479Z,98181.38
2024-04-13T21:09:11.571Z,98180.94
2024-04-13T21:14:13.532Z,98164.06
2024-04-13T21:19:15.620Z,98160.84
2024-04-13T21:24:17.667Z,98166.47
2024-04-13T21:29:20.090Z,98160.72
2024-04-13T21:34:23.988Z,98151.25
2024-04-13T21:39:26.823Z,98151.25
2024-04-13T21:44:30.532Z,98149.19
2024-04-13T21:49:32.711Z,98138.75
2024-04-13T21:54:34.669Z,98141.66
2024-04-13T21:59:36.884Z,98135.91
2024-04-13T22:04:39.121Z,98130.19
2024-04-13T22:09:41.284Z,98134.88
2024-04-13T22:14:47.015Z,98136.31
2024-04-13T22:19:51.779Z,98136.59
2024-04-13T22:24:53.994Z,98121.41
2024-04-13T22:29:58.674Z,98122.56
2024-04-13T22:35:01.107Z,98114.41
2024-04-13T22:40:03.358Z,98120.56
2024-04-13T22:45:05.981Z,98114.59
2024-04-13T22:50:08.418Z,98113.56
2024-04-13T22:55:11.140Z,98112.19
2024-04-13T23:00:13.630Z,98109.13
2024-04-13T23:05:15.689Z,98103.22
2024-04-13T23:10:17.705Z,98090.72
2024-04-13T23:15:19.689Z,98095.47
2024-04-13T23:20:21.859Z,98076.75
2024-04-13T23:25:24.056Z,98078.56
2024-04-13T23:30:26.110Z,98087.34
2024-04-13T23:35:28.092Z,98080.03
2024-04-13T23:40:31.630Z,98073.28
2024-04-13T23:45:33.650Z,98070.13
2024-04-13T23:50:35.650Z,98061.66
2024-04-13T23:55:38.689Z,98058.63
